Time;durP1;ratioP1;P1;durP2;ratioP2;P2;SDS_P1;SDS_P2;PMS_P1;PMS_P2;Temp;Humidity;BMP_temperature;BMP_pressure;BME280_temperature;BME280_humidity;BME280_pressure;Samples;Min_cycle;Max_cycle;Signal;HPM_P1;HPM_P2
2021/01/30 00:00:55;;;;;;;0.30;0.30;;;7.80;99.90;;;;;;4994273;28;20971;-69
2021/01/30 00:03:21;;;;;;;0.30;0.30;;;7.80;99.90;;;;;;4994492;28;20180;-69
2021/01/30 00:05:47;;;;;;;0.40;0.40;;;7.80;99.90;;;;;;4994190;28;20666;-70
2021/01/30 00:08:14;;;;;;;0.30;0.30;;;7.70;99.90;;;;;;4994945;28;20213;-67
2021/01/30 00:10:40;;;;;;;0.30;0.30;;;7.70;99.90;;;;;;4994276;28;20585;-69
2021/01/30 00:13:06;;;;;;;0.30;0.30;;;7.80;99.90;;;;;;4994733;28;20177;-71
2021/01/30 00:15:32;;;;;;;0.30;0.30;;;7.80;99.90;;;;;;4993727;28;20411;-71
2021/01/30 00:17:58;;;;;;;0.30;0.30;;;7.80;99.90;;;;;;4993141;28;20720;-69
2021/01/30 00:20:33;;;;;;;0.30;0.30;;;7.90;99.90;;;;;;4994581;28;20463;-70
2021/01/30 00:22:59;;;;;;;0.30;0.30;;;7.90;99.90;;;;;;4994172;28;20169;-70
2021/01/30 00:25:30;;;;;;;0.30;0.30;;;7.90;99.90;;;;;;4994191;28;20179;-70
2021/01/30 00:27:56;;;;;;;0.30;0.30;;;7.90;99.90;;;;;;4994349;28;20653;-70
2021/01/30 00:30:25;;;;;;;0.30;0.30;;;7.90;99.90;;;;;;4976758;28;20223;-70
2021/01/30 00:32:51;;;;;;;0.30;0.30;;;7.90;99.90;;;;;;4993744;28;20164;-70
2021/01/30 00:35:26;;;;;;;0.30;0.30;;;7.90;99.90;;;;;;4994137;28;20183;-69
2021/01/30 00:37:51;;;;;;;0.30;0.20;;;7.90;99.90;;;;;;4993849;28;20243;-69
2021/01/30 00:40:19;;;;;;;0.30;0.20;;;7.90;99.90;;;;;;4994240;28;20174;-69
2021/01/30 00:42:44;;;;;;;0.30;0.30;;;7.90;99.90;;;;;;4976432;28;20440;-70
2021/01/30 00:45:14;;;;;;;0.30;0.30;;;7.90;99.90;;;;;;4993798;28;20171;-70
2021/01/30 00:47:40;;;;;;;0.30;0.30;;;7.90;99.90;;;;;;4993666;28;20560;-69
2021/01/30 00:50:07;;;;;;;0.30;0.30;;;7.90;99.90;;;;;;4994117;28;20232;-70
2021/01/30 00:52:33;;;;;;;0.30;0.30;;;7.90;99.90;;;;;;4993912;28;20186;-70
2021/01/30 00:54:58;;;;;;;0.30;0.30;;;7.90;99.90;;;;;;4993439;28;20519;-69
2021/01/30 00:57:24;;;;;;;0.30;0.30;;;7.90;99.90;;;;;;4993400;28;20650;-70
2021/01/30 00:59:50;;;;;;;0.30;0.30;;;7.90;99.90;;;;;;4994174;28;20574;-70
2021/01/30 01:02:16;;;;;;;0.30;0.30;;;7.90;99.90;;;;;;4993097;28;20176;-70
2021/01/30 01:04:44;;;;;;;0.30;0.27;;;7.90;99.90;;;;;;4976104;28;20184;-72
2021/01/30 01:07:10;;;;;;;0.30;0.30;;;7.90;99.90;;;;;;4993564;28;20431;-71
2021/01/30 01:09:35;;;;;;;0.30;0.30;;;7.90;99.90;;;;;;4993998;28;20575;-70
2021/01/30 01:12:01;;;;;;;0.30;0.30;;;7.90;99.90;;;;;;4993785;28;20784;-69
2021/01/30 01:14:27;;;;;;;0.30;0.20;;;7.80;99.90;;;;;;4993981;28;20748;-70
2021/01/30 01:16:53;;;;;;;0.30;0.30;;;7.80;99.90;;;;;;4993119;28;20202;-70
2021/01/30 01:19:19;;;;;;;0.30;0.30;;;7.70;99.90;;;;;;4993517;28;20496;-70
2021/01/30 01:21:48;;;;;;;0.40;0.40;;;7.70;99.90;;;;;;4993934;28;20169;-70
2021/01/30 01:24:15;;;;;;;0.30;0.30;;;7.60;99.90;;;;;;4993229;28;20513;-70
2021/01/30 01:26:44;;;;;;;0.30;0.30;;;7.50;99.90;;;;;;4993307;28;20579;-69
2021/01/30 01:29:13;;;;;;;0.30;0.30;;;7.50;99.90;;;;;;4993503;28;20531;-70
2021/01/30 01:31:39;;;;;;;0.40;0.40;;;7.50;99.90;;;;;;4993726;28;20258;-71
2021/01/30 01:34:04;;;;;;;0.30;0.30;;;7.40;99.90;;;;;;4993211;28;20172;-69
2021/01/30 01:36:30;;;;;;;0.30;0.20;;;7.40;99.90;;;;;;4992941;28;20691;-69
2021/01/30 01:38:55;;;;;;;0.30;0.30;;;7.30;99.90;;;;;;4993309;28;20179;-69
2021/01/30 01:41:21;;;;;;;0.30;0.30;;;7.40;99.90;;;;;;4993573;28;20173;-69
2021/01/30 01:43:51;;;;;;;0.30;0.30;;;7.40;99.90;;;;;;4993238;28;20507;-69
2021/01/30 01:46:23;;;;;;;0.30;0.30;;;7.40;99.90;;;;;;4993475;28;20192;-69
2021/01/30 01:48:54;;;;;;;0.30;0.20;;;7.50;99.90;;;;;;4992959;28;20191;-69
2021/01/30 01:51:40;;;;;;;0.30;0.20;;;7.60;99.90;;;;;;4993080;28;20197;-69
2021/01/30 01:54:12;;;;;;;0.30;0.30;;;7.60;99.90;;;;;;4993316;28;20572;-71
2021/01/30 01:56:39;;;;;;;0.30;0.30;;;7.70;99.90;;;;;;4993098;28;20196;-69
2021/01/30 01:59:17;;;;;;;0.30;0.30;;;7.80;99.90;;;;;;4976202;28;20181;-68
2021/01/30 02:01:43;;;;;;;0.30;0.30;;;7.80;99.90;;;;;;4993953;28;20173;-69
2021/01/30 02:04:12;;;;;;;0.30;0.30;;;7.90;99.90;;;;;;4993224;28;20668;-68
2021/01/30 02:06:45;;;;;;;0.30;0.30;;;7.90;99.90;;;;;;4976062;28;20458;-68
2021/01/30 02:09:17;;;;;;;0.30;0.30;;;7.90;99.90;;;;;;4996926;28;20562;-68
2021/01/30 02:11:53;;;;;;;0.40;0.40;;;7.90;99.90;;;;;;4996479;28;20245;-68
2021/01/30 02:14:19;;;;;;;0.30;0.30;;;7.90;99.90;;;;;;4996461;28;20182;-70
2021/01/30 02:16:49;;;;;;;1.03;0.93;;;7.90;99.90;;;;;;4996186;28;20602;-69
2021/01/30 02:19:28;;;;;;;0.30;0.30;;;8.00;99.90;;;;;;4996399;28;20270;-70
2021/01/30 02:22:02;;;;;;;0.30;0.30;;;8.00;99.90;;;;;;4996599;28;20177;-69
2021/01/30 02:24:57;;;;;;;0.30;0.30;;;8.00;99.90;;;;;;4996399;28;20648;-69
2021/01/30 02:27:28;;;;;;;0.30;0.30;;;8.10;99.90;;;;;;4994958;28;20750;-69
2021/01/30 02:30:09;;;;;;;0.30;0.30;;;8.10;99.90;;;;;;4996214;28;20178;-68
2021/01/30 02:32:54;;;;;;;0.30;0.30;;;8.10;99.90;;;;;;4979275;28;20266;-70
2021/01/30 02:35:41;;;;;;;0.30;0.30;;;8.00;99.90;;;;;;4976459;28;20283;-70
2021/01/30 02:38:12;;;;;;;0.30;0.30;;;8.00;99.90;;;;;;4991509;28;20184;-69
2021/01/30 02:40:40;;;;;;;0.30;0.30;;;8.00;99.90;;;;;;4996029;28;20296;-68
2021/01/30 02:43:13;;;;;;;0.30;0.30;;;7.90;99.90;;;;;;4995554;28;20235;-69
2021/01/30 02:45:46;;;;;;;0.30;0.30;;;7.90;99.90;;;;;;4996026;28;20525;-69
2021/01/30 02:48:19;;;;;;;0.30;0.30;;;7.90;99.90;;;;;;4996103;28;20191;-68
2021/01/30 02:50:48;;;;;;;0.30;0.30;;;7.80;99.90;;;;;;4996240;28;20201;-69
2021/01/30 02:53:22;;;;;;;0.57;0.57;;;7.80;99.90;;;;;;4995456;28;20198;-67
2021/01/30 02:55:53;;;;;;;0.30;0.30;;;7.90;99.90;;;;;;4995734;28;20184;-69
2021/01/30 02:58:22;;;;;;;0.30;0.30;;;7.80;99.90;;;;;;4978287;28;20237;-68
2021/01/30 03:00:49;;;;;;;0.30;0.20;;;7.80;99.90;;;;;;4996094;28;20763;-69
2021/01/30 03:03:15;;;;;;;0.30;0.30;;;7.80;99.90;;;;;;4995978;28;20237;-69
2021/01/30 03:05:44;;;;;;;0.30;0.30;;;7.80;99.90;;;;;;4995157;28;20172;-70
2021/01/30 03:08:35;;;;;;;0.30;0.30;;;7.70;99.90;;;;;;4995220;28;20180;-68
2021/01/30 03:11:20;;;;;;;0.40;0.40;;;7.60;99.90;;;;;;4978372;28;20670;-70
2021/01/30 03:13:57;;;;;;;0.30;0.30;;;7.60;99.90;;;;;;4995535;28;20194;-69
2021/01/30 03:16:37;;;;;;;0.30;0.30;;;7.50;99.90;;;;;;4995205;28;20268;-68
2021/01/30 03:19:13;;;;;;;0.30;0.30;;;7.50;99.90;;;;;;4994820;28;20195;-68
2021/01/30 03:21:41;;;;;;;0.30;0.30;;;7.50;99.90;;;;;;4977823;28;20540;-70
2021/01/30 03:24:07;;;;;;;0.30;0.30;;;7.50;99.90;;;;;;4995431;28;20183;-69
2021/01/30 03:26:38;;;;;;;0.30;0.20;;;7.40;99.90;;;;;;4995137;28;20718;-68
2021/01/30 03:29:04;;;;;;;0.30;0.20;;;7.40;99.90;;;;;;4994747;28;20204;-68
2021/01/30 03:31:29;;;;;;;0.30;0.30;;;7.40;99.90;;;;;;4995275;28;20195;-69
2021/01/30 03:33:55;;;;;;;0.40;0.40;;;7.40;99.90;;;;;;4995110;28;20184;-69
2021/01/30 03:36:21;;;;;;;0.30;0.30;;;7.40;99.90;;;;;;4994533;28;20191;-69
2021/01/30 03:38:47;;;;;;;0.30;0.30;;;7.50;99.90;;;;;;4994987;28;20664;-70
2021/01/30 03:41:12;;;;;;;0.30;0.30;;;7.50;99.90;;;;;;4995351;28;20222;-69
2021/01/30 03:43:38;;;;;;;0.30;0.30;;;7.50;99.90;;;;;;4994745;28;20177;-69
2021/01/30 03:46:04;;;;;;;0.30;0.30;;;7.50;99.90;;;;;;4994826;28;20188;-69
2021/01/30 03:48:29;;;;;;;0.30;0.30;;;7.60;99.90;;;;;;4994753;28;20179;-69
2021/01/30 03:50:55;;;;;;;0.30;0.20;;;7.60;99.90;;;;;;4994671;28;20573;-68
2021/01/30 03:53:21;;;;;;;0.30;0.30;;;7.60;99.90;;;;;;4994698;28;20172;-69
2021/01/30 03:55:46;;;;;;;0.30;0.30;;;7.50;99.90;;;;;;4994447;28;20192;-67
2021/01/30 03:58:12;;;;;;;0.30;0.30;;;7.50;99.90;;;;;;4994593;28;20214;-68
2021/01/30 04:00:38;;;;;;;0.30;0.30;;;7.50;99.90;;;;;;4994690;28;20218;-69
2021/01/30 04:03:04;;;;;;;0.40;0.40;;;7.50;99.90;;;;;;4994530;28;20181;-70
2021/01/30 04:05:29;;;;;;;0.30;0.20;;;7.50;99.90;;;;;;4994126;28;20179;-69
2021/01/30 04:07:57;;;;;;;0.30;0.20;;;7.50;99.90;;;;;;4994083;28;20229;-70
2021/01/30 04:10:30;;;;;;;0.30;0.30;;;7.50;99.90;;;;;;4994728;28;20204;-69
2021/01/30 04:12:58;;;;;;;0.30;0.20;;;7.50;99.90;;;;;;4994416;28;20263;-69
2021/01/30 04:15:28;;;;;;;0.30;0.30;;;7.50;99.90;;;;;;4976596;28;20181;-69
2021/01/30 04:17:54;;;;;;;0.30;0.30;;;7.50;99.90;;;;;;4994155;28;20186;-70
2021/01/30 04:20:20;;;;;;;0.30;0.20;;;7.50;99.90;;;;;;4994569;28;20179;-69
2021/01/30 04:22:46;;;;;;;0.30;0.30;;;7.50;99.90;;;;;;4994343;28;20187;-70
2021/01/30 04:25:15;;;;;;;0.30;0.30;;;7.50;99.90;;;;;;4994113;28;20929;-67
2021/01/30 04:27:41;;;;;;;0.30;0.30;;;7.40;99.90;;;;;;4993416;28;20258;-67
2021/01/30 04:30:09;;;;;;;0.30;0.30;;;7.40;99.90;;;;;;4993700;28;20207;-68
2021/01/30 04:32:35;;;;;;;0.30;0.30;;;7.40;99.90;;;;;;4993936;28;20214;-68
2021/01/30 04:35:00;;;;;;;0.30;0.30;;;7.40;99.90;;;;;;4993763;28;20533;-67
2021/01/30 04:37:26;;;;;;;0.30;0.30;;;7.40;99.90;;;;;;4993938;28;20275;-67
2021/01/30 04:39:52;;;;;;;0.30;0.30;;;7.40;99.90;;;;;;4994356;28;20179;-68
2021/01/30 04:42:33;;;;;;;0.30;0.30;;;7.40;99.90;;;;;;4993193;28;20627;-68
2021/01/30 04:45:08;;;;;;;0.30;0.30;;;7.30;99.90;;;;;;4994228;28;20190;-68
2021/01/30 04:47:56;;;;;;;0.30;0.30;;;7.30;99.90;;;;;;4993668;28;20245;-68
2021/01/30 04:50:49;;;;;;;0.40;0.40;;;7.30;99.90;;;;;;4994120;28;20203;-69
2021/01/30 04:53:38;;;;;;;0.30;0.20;;;7.30;99.90;;;;;;4984272;28;20176;-68
2021/01/30 04:56:22;;;;;;;0.30;0.30;;;7.30;99.90;;;;;;4993121;28;20591;-69
2021/01/30 04:59:26;;;;;;;0.30;0.30;;;7.30;99.90;;;;;;4976773;28;20172;-66
2021/01/30 05:02:01;;;;;;;0.30;0.30;;;7.30;99.90;;;;;;4993679;28;20656;-67
2021/01/30 05:04:41;;;;;;;0.30;0.30;;;7.30;99.90;;;;;;4993893;28;20546;-68
2021/01/30 05:07:16;;;;;;;0.30;0.30;;;7.40;99.90;;;;;;4993648;28;20198;-67
2021/01/30 05:09:53;;;;;;;0.30;0.30;;;7.40;99.90;;;;;;4993918;28;20575;-68
2021/01/30 05:12:26;;;;;;;0.30;0.30;;;7.40;99.90;;;;;;4976039;28;20207;-67
2021/01/30 05:15:29;;;;;;;0.30;0.30;;;7.30;99.90;;;;;;4993612;28;20210;-68
2021/01/30 05:17:58;;;;;;;0.30;0.30;;;7.30;99.90;;;;;;4992595;28;20192;-68
2021/01/30 05:20:26;;;;;;;0.30;0.30;;;7.30;99.90;;;;;;4993866;28;20175;-67
2021/01/30 05:22:52;;;;;;;0.30;0.30;;;7.40;99.90;;;;;;4993207;28;20175;-67
2021/01/30 05:25:24;;;;;;;0.40;0.40;;;7.40;99.90;;;;;;4993475;28;20180;-67
2021/01/30 05:28:15;;;;;;;0.30;0.30;;;7.40;99.90;;;;;;4993375;28;20296;-68
2021/01/30 05:31:05;;;;;;;0.30;0.30;;;7.40;99.90;;;;;;4994071;28;20197;-68
2021/01/30 05:33:36;;;;;;;0.32;0.32;;;7.50;99.90;;;;;;4985764;28;20184;-68
2021/01/30 05:36:26;;;;;;;0.30;0.30;;;7.50;99.90;;;;;;4992676;28;20205;-71
2021/01/30 05:39:31;;;;;;;0.30;0.30;;;7.50;99.90;;;;;;4993488;28;20181;-69
2021/01/30 05:42:16;;;;;;;0.30;0.30;;;7.60;99.90;;;;;;4979169;28;20187;-69
2021/01/30 05:45:03;;;;;;;0.30;0.30;;;7.50;99.90;;;;;;4997847;28;20627;-72
2021/01/30 05:47:31;;;;;;;0.32;0.32;;;7.50;99.90;;;;;;4996637;28;20590;-69
2021/01/30 05:50:03;;;;;;;0.30;0.30;;;7.60;99.90;;;;;;4997160;28;20212;-67
2021/01/30 05:52:34;;;;;;;0.30;0.30;;;7.60;99.90;;;;;;4996712;28;20165;-68
2021/01/30 05:55:00;;;;;;;0.30;0.30;;;7.60;99.90;;;;;;4979499;28;20654;-68
2021/01/30 05:57:26;;;;;;;0.30;0.30;;;7.60;99.90;;;;;;4996205;28;20192;-68
2021/01/30 05:59:57;;;;;;;0.30;0.30;;;7.60;99.90;;;;;;4997094;28;20181;-68
2021/01/30 06:02:25;;;;;;;0.30;0.30;;;7.50;99.90;;;;;;4996723;28;20178;-69
2021/01/30 06:04:52;;;;;;;0.30;0.30;;;7.60;99.90;;;;;;4996343;28;20537;-69
2021/01/30 06:07:22;;;;;;;0.30;0.20;;;7.50;99.90;;;;;;4996556;28;20733;-68
2021/01/30 06:09:50;;;;;;;0.30;0.30;;;7.50;99.90;;;;;;4996902;28;20179;-68
2021/01/30 06:12:22;;;;;;;0.30;0.30;;;7.50;99.90;;;;;;4996624;28;20185;-68
2021/01/30 06:14:48;;;;;;;0.30;0.30;;;7.50;99.90;;;;;;4979176;28;20190;-69
2021/01/30 06:17:30;;;;;;;0.30;0.30;;;7.50;99.90;;;;;;4996507;28;20185;-68
2021/01/30 06:20:05;;;;;;;0.30;0.30;;;7.50;99.90;;;;;;4996499;28;20174;-69
2021/01/30 06:22:31;;;;;;;0.30;0.30;;;7.40;99.90;;;;;;4996397;28;20170;-67
2021/01/30 06:24:56;;;;;;;0.30;0.30;;;7.40;99.90;;;;;;4996349;28;20169;-67
2021/01/30 06:27:31;;;;;;;0.30;0.30;;;7.40;99.90;;;;;;4978435;28;20200;-67
2021/01/30 06:30:13;;;;;;;0.30;0.20;;;7.40;99.90;;;;;;4996735;28;20177;-69
2021/01/30 06:32:44;;;;;;;0.30;0.30;;;7.40;99.90;;;;;;4996265;28;20176;-68
2021/01/30 06:35:10;;;;;;;0.30;0.30;;;7.30;99.90;;;;;;4996155;28;20173;-68
2021/01/30 06:37:48;;;;;;;0.30;0.30;;;7.30;99.90;;;;;;4996384;28;20197;-68
2021/01/30 06:40:30;;;;;;;0.30;0.20;;;7.30;99.90;;;;;;4995691;28;20424;-67
2021/01/30 06:43:11;;;;;;;0.30;0.20;;;7.20;99.90;;;;;;4995961;28;20538;-68
2021/01/30 06:45:42;;;;;;;0.30;0.30;;;7.20;99.90;;;;;;4995528;28;20653;-68
2021/01/30 06:48:26;;;;;;;0.30;0.30;;;7.20;99.90;;;;;;4996308;28;20262;-68
2021/01/30 06:50:52;;;;;;;0.30;0.30;;;7.20;99.90;;;;;;4996060;28;20733;-69
2021/01/30 06:53:33;;;;;;;0.30;0.20;;;7.10;99.90;;;;;;4994934;28;20246;-68
2021/01/30 06:56:22;;;;;;;0.30;0.30;;;7.10;99.90;;;;;;4983957;28;20204;-69
2021/01/30 06:58:50;;;;;;;0.30;0.30;;;7.10;99.90;;;;;;4995995;28;20236;-70
2021/01/30 07:01:22;;;;;;;0.30;0.30;;;7.10;99.90;;;;;;4995804;28;20222;-69
2021/01/30 07:04:03;;;;;;;0.30;0.30;;;7.10;99.90;;;;;;4995888;28;20575;-69
2021/01/30 07:06:51;;;;;;;0.30;0.30;;;7.10;99.90;;;;;;4995021;28;20201;-70
2021/01/30 07:09:30;;;;;;;0.30;0.20;;;7.10;99.90;;;;;;4977645;28;20231;-69
2021/01/30 07:12:08;;;;;;;0.30;0.30;;;7.10;99.90;;;;;;4995031;28;20197;-68
2021/01/30 07:14:37;;;;;;;0.30;0.30;;;7.10;99.90;;;;;;4978268;28;20168;-69
2021/01/30 07:17:10;;;;;;;0.30;0.30;;;7.10;99.90;;;;;;4994950;28;20195;-69
2021/01/30 07:19:57;;;;;;;0.30;0.30;;;7.10;99.90;;;;;;4995686;28;20266;-70
2021/01/30 07:22:35;;;;;;;0.30;0.30;;;7.10;99.90;;;;;;5003540;28;20201;-68
2021/01/30 07:25:14;;;;;;;0.30;0.30;;;7.20;99.90;;;;;;4979233;28;20990;-69
2021/01/30 07:27:45;;;;;;;0.30;0.30;;;7.20;99.90;;;;;;4995082;28;20208;-69
2021/01/30 07:30:19;;;;;;;1.50;1.40;;;7.30;99.90;;;;;;4994686;28;20224;-69
2021/01/30 07:33:06;;;;;;;0.30;0.30;;;7.30;99.90;;;;;;4994752;28;20687;-68
2021/01/30 07:35:41;;;;;;;0.30;0.30;;;7.40;99.90;;;;;;4994269;28;20181;-69
2021/01/30 07:38:22;;;;;;;0.30;0.30;;;7.50;99.90;;;;;;4995179;28;20179;-68
2021/01/30 07:41:00;;;;;;;0.30;0.30;;;7.60;99.90;;;;;;4995184;28;20256;-71
2021/01/30 07:43:34;;;;;;;0.70;0.70;;;7.70;99.90;;;;;;4975732;28;20254;-68
2021/01/30 07:46:56;;;;;;;0.30;0.30;;;7.80;99.90;;;;;;4981457;28;20203;-69
2021/01/30 07:49:28;;;;;;;0.30;0.20;;;7.90;99.90;;;;;;4978766;28;20195;-68
2021/01/30 07:51:57;;;;;;;0.30;0.30;;;7.90;99.90;;;;;;4994852;28;20569;-68
2021/01/30 07:54:23;;;;;;;0.30;0.30;;;8.00;99.90;;;;;;4994806;28;20170;-68
2021/01/30 07:57:32;;;;;;;0.30;0.30;;;8.10;99.90;;;;;;4993638;28;20222;-70
2021/01/30 08:00:05;;;;;;;0.30;0.25;;;8.10;99.90;;;;;;4994644;28;20162;-70
2021/01/30 08:03:05;;;;;;;0.30;0.30;;;8.20;99.90;;;;;;4994146;28;20545;-68
2021/01/30 08:05:42;;;;;;;0.30;0.30;;;8.30;99.90;;;;;;4993579;28;20175;-70
2021/01/30 08:08:22;;;;;;;0.30;0.30;;;8.40;99.90;;;;;;4977218;28;20177;-69
2021/01/30 08:11:00;;;;;;;0.30;0.30;;;8.50;99.90;;;;;;4977271;28;20550;-70
2021/01/30 08:13:47;;;;;;;0.30;0.30;;;8.60;99.90;;;;;;4994467;28;20179;-69
2021/01/30 08:16:44;;;;;;;0.80;0.80;;;8.70;99.90;;;;;;4994111;28;20285;-72
2021/01/30 08:19:37;;;;;;;0.32;0.32;;;8.80;99.90;;;;;;4994509;28;20573;-69
2021/01/30 08:22:46;;;;;;;0.30;0.30;;;8.90;99.90;;;;;;4976932;28;20238;-69
2021/01/30 08:25:20;;;;;;;0.30;0.30;;;9.00;99.90;;;;;;4940117;29;20180;-71
2021/01/30 08:28:01;;;;;;;0.30;0.30;;;9.10;99.90;;;;;;4952647;29;20211;-69
2021/01/30 08:30:27;;;;;;;0.30;0.30;;;9.20;99.90;;;;;;4952703;29;20203;-71
2021/01/30 08:33:05;;;;;;;0.40;0.40;;;9.20;99.90;;;;;;4953344;29;20263;-68
2021/01/30 08:35:31;;;;;;;0.30;0.30;;;9.20;99.90;;;;;;4938595;29;20188;-69
2021/01/30 08:37:57;;;;;;;0.30;0.30;;;9.20;99.90;;;;;;4934361;29;20692;-68
2021/01/30 08:40:52;;;;;;;0.30;0.30;;;9.20;99.90;;;;;;4944331;29;20432;-69
2021/01/30 08:43:41;;;;;;;0.30;0.28;;;9.20;99.90;;;;;;4952588;29;20648;-68
2021/01/30 08:46:32;;;;;;;0.30;0.20;;;9.20;99.90;;;;;;4953046;29;20302;-71
2021/01/30 08:49:28;;;;;;;0.30;0.30;;;9.30;99.90;;;;;;4930937;29;20181;-68
2021/01/30 08:52:12;;;;;;;0.30;0.30;;;9.20;99.90;;;;;;4933463;29;20224;-68
2021/01/30 08:54:42;;;;;;;0.30;0.30;;;9.20;99.90;;;;;;4945487;29;20177;-70
2021/01/30 08:57:32;;;;;;;0.60;0.60;;;9.20;99.90;;;;;;4952231;29;20208;-70
2021/01/30 08:59:59;;;;;;;0.30;0.30;;;9.10;99.90;;;;;;4972736;28;20190;-69
2021/01/30 09:02:50;;;;;;;0.30;0.30;;;9.10;99.90;;;;;;4994123;28;20163;-69
2021/01/30 09:05:24;;;;;;;0.30;0.20;;;9.10;99.90;;;;;;4933093;29;20192;-69
2021/01/30 09:07:54;;;;;;;0.30;0.30;;;9.10;99.90;;;;;;4933424;29;20201;-69
2021/01/30 09:10:22;;;;;;;0.30;0.20;;;9.20;99.90;;;;;;4933637;29;20687;-68
2021/01/30 09:13:03;;;;;;;0.30;0.30;;;9.20;99.90;;;;;;4933763;29;20178;-68
2021/01/30 09:15:38;;;;;;;0.30;0.30;;;9.20;99.90;;;;;;4933027;29;20177;-70
2021/01/30 09:18:18;;;;;;;0.30;0.30;;;9.20;99.90;;;;;;4933688;29;20204;-67
2021/01/30 09:21:07;;;;;;;0.30;0.30;;;9.30;99.90;;;;;;4920460;29;20641;-67
2021/01/30 09:24:09;;;;;;;0.73;0.73;;;9.40;99.90;;;;;;4935868;29;20644;-68
2021/01/30 09:26:54;;;;;;;0.30;0.30;;;9.40;99.90;;;;;;4936147;29;20196;-68
2021/01/30 09:29:25;;;;;;;0.30;0.30;;;9.50;99.90;;;;;;4935664;29;20191;-68
2021/01/30 09:31:58;;;;;;;0.30;0.30;;;9.50;99.90;;;;;;4936776;29;20237;-69
2021/01/30 09:34:29;;;;;;;0.30;0.30;;;9.60;99.90;;;;;;4920849;29;20216;-69
2021/01/30 09:36:55;;;;;;;0.30;0.30;;;9.60;99.90;;;;;;4936616;29;20213;-69
2021/01/30 09:39:26;;;;;;;0.30;0.30;;;9.70;99.90;;;;;;4937572;29;20533;-69
2021/01/30 09:42:10;;;;;;;0.30;0.20;;;9.80;99.90;;;;;;4958483;28;20187;-70
2021/01/30 09:44:36;;;;;;;0.30;0.30;;;9.90;99.90;;;;;;4997591;28;20176;-69
2021/01/30 09:47:06;;;;;;;0.30;0.30;;;9.90;99.90;;;;;;4996621;28;20262;-69
2021/01/30 09:49:34;;;;;;;0.30;0.20;;;9.80;99.90;;;;;;4996965;28;20234;-68
2021/01/30 09:52:00;;;;;;;0.30;0.30;;;9.80;99.90;;;;;;4997218;28;20690;-69
2021/01/30 09:54:28;;;;;;;0.30;0.30;;;9.90;99.90;;;;;;4997260;28;20179;-69
2021/01/30 09:57:01;;;;;;;0.30;0.30;;;9.90;99.90;;;;;;4996672;28;20434;-70
2021/01/30 09:59:29;;;;;;;0.30;0.30;;;10.00;99.90;;;;;;4997152;28;20239;-68
2021/01/30 10:02:16;;;;;;;0.30;0.30;;;10.00;99.90;;;;;;4979281;28;20210;-69
2021/01/30 10:04:42;;;;;;;0.30;0.30;;;10.00;99.90;;;;;;4996575;28;20175;-73
2021/01/30 10:07:17;;;;;;;0.30;0.30;;;10.10;99.90;;;;;;4996607;28;20206;-69
2021/01/30 10:09:47;;;;;;;0.30;0.30;;;10.20;99.90;;;;;;4997079;28;20221;-70
2021/01/30 10:12:16;;;;;;;0.30;0.30;;;10.40;99.90;;;;;;4996690;28;20203;-70
2021/01/30 10:15:09;;;;;;;0.30;0.30;;;10.40;99.90;;;;;;4996569;28;20229;-69
2021/01/30 10:17:41;;;;;;;0.30;0.30;;;10.60;99.90;;;;;;4994182;28;20208;-68
2021/01/30 10:20:12;;;;;;;0.30;0.30;;;10.70;99.90;;;;;;4996669;28;20191;-69
2021/01/30 10:22:41;;;;;;;0.30;0.30;;;10.70;99.90;;;;;;4996624;28;20180;-68
2021/01/30 10:25:10;;;;;;;0.30;0.20;;;10.80;99.90;;;;;;4996062;28;20182;-68
2021/01/30 10:27:36;;;;;;;0.30;0.30;;;10.80;99.90;;;;;;4996622;28;20531;-68
2021/01/30 10:30:04;;;;;;;0.30;0.30;;;10.90;99.90;;;;;;4996403;28;20239;-69
2021/01/30 10:32:57;;;;;;;0.30;0.30;;;10.90;99.90;;;;;;4996076;28;20594;-69
2021/01/30 10:35:48;;;;;;;0.37;0.37;;;11.00;99.90;;;;;;4977672;28;20542;-69
2021/01/30 10:38:17;;;;;;;0.30;0.30;;;11.00;99.90;;;;;;4996199;28;20472;-67
2021/01/30 10:40:54;;;;;;;0.52;0.52;;;11.10;99.90;;;;;;4996487;28;20179;-68
2021/01/30 10:43:30;;;;;;;0.30;0.30;;;11.10;99.90;;;;;;4996085;28;20182;-68
2021/01/30 10:45:59;;;;;;;0.30;0.30;;;11.20;99.90;;;;;;4995837;28;20208;-69
2021/01/30 10:48:33;;;;;;;0.30;0.30;;;11.30;99.90;;;;;;4996200;28;20186;-69
2021/01/30 10:51:08;;;;;;;0.30;0.30;;;11.50;99.90;;;;;;4995730;28;20286;-70
2021/01/30 10:53:37;;;;;;;0.30;0.30;;;11.60;99.90;;;;;;4995904;28;20176;-69
2021/01/30 10:56:21;;;;;;;0.30;0.20;;;11.50;99.90;;;;;;4995260;28;20230;-69
2021/01/30 10:58:52;;;;;;;0.30;0.30;;;11.40;99.90;;;;;;4996038;28;20502;-70
2021/01/30 11:01:17;;;;;;;0.30;0.30;;;11.30;99.90;;;;;;4996291;28;20532;-70
2021/01/30 11:03:48;;;;;;;0.30;0.30;;;11.20;99.90;;;;;;4995908;28;20179;-70
2021/01/30 11:06:41;;;;;;;0.30;0.20;;;11.10;99.90;;;;;;4995416;28;20191;-67
2021/01/30 11:09:11;;;;;;;0.30;0.20;;;11.10;99.90;;;;;;4995999;28;20402;-68
2021/01/30 11:11:37;;;;;;;0.30;0.20;;;11.00;99.90;;;;;;4995375;28;20206;-69
2021/01/30 11:14:18;;;;;;;0.40;0.40;;;11.00;99.90;;;;;;4995775;28;20179;-69
2021/01/30 11:16:44;;;;;;;0.30;0.30;;;10.90;99.90;;;;;;4995271;28;20272;-69
2021/01/30 11:19:39;;;;;;;0.30;0.30;;;10.80;99.90;;;;;;4995363;28;20190;-67
2021/01/30 11:22:19;;;;;;;0.30;0.30;;;10.80;99.90;;;;;;4995704;28;20238;-69
2021/01/30 11:25:12;;;;;;;5.45;1.15;;;10.70;99.90;;;;;;4995309;28;20167;-69
2021/01/30 11:27:47;;;;;;;0.30;0.20;;;10.70;99.90;;;;;;4977772;28;20203;-69
2021/01/30 11:30:18;;;;;;;0.77;0.77;;;10.70;99.90;;;;;;4995463;28;20178;-70
2021/01/30 11:32:55;;;;;;;0.30;0.30;;;10.60;99.90;;;;;;4995286;28;20176;-68
2021/01/30 11:35:26;;;;;;;0.30;0.30;;;10.60;99.90;;;;;;4995125;28;20181;-68
2021/01/30 11:37:53;;;;;;;1.20;1.02;;;10.60;99.90;;;;;;4995163;28;20192;-68
2021/01/30 11:40:19;;;;;;;0.30;0.20;;;10.70;99.90;;;;;;4994432;28;20257;-70
2021/01/30 11:42:45;;;;;;;0.30;0.20;;;10.70;99.90;;;;;;4995056;28;20187;-69
2021/01/30 11:45:12;;;;;;;0.30;0.20;;;10.70;99.90;;;;;;4994787;28;20183;-70
2021/01/30 11:47:39;;;;;;;0.30;0.30;;;10.70;99.90;;;;;;4995012;28;20192;-69
2021/01/30 11:50:06;;;;;;;0.45;0.43;;;10.60;99.90;;;;;;4994792;28;20195;-70
2021/01/30 11:52:31;;;;;;;0.30;0.20;;;10.70;99.90;;;;;;4995116;28;20175;-68
2021/01/30 11:55:02;;;;;;;0.30;0.20;;;10.70;99.90;;;;;;4994834;28;20220;-70
2021/01/30 11:57:28;;;;;;;0.30;0.30;;;10.60;99.90;;;;;;4994995;28;20191;-70
2021/01/30 11:59:55;;;;;;;0.30;0.30;;;10.60;99.90;;;;;;4995129;28;20558;-68
2021/01/30 12:02:30;;;;;;;0.30;0.20;;;10.50;99.90;;;;;;4994644;28;20218;-71
2021/01/30 12:04:56;;;;;;;0.30;0.30;;;10.50;99.90;;;;;;4995064;28;20267;-69
2021/01/30 12:07:22;;;;;;;0.30;0.20;;;10.60;99.90;;;;;;4994724;28;20290;-69
2021/01/30 12:09:48;;;;;;;0.30;0.20;;;10.60;99.90;;;;;;4994977;28;20398;-69
2021/01/30 12:12:13;;;;;;;0.30;0.30;;;10.60;99.90;;;;;;4994516;28;20740;-68
2021/01/30 12:14:39;;;;;;;0.30;0.30;;;10.60;99.90;;;;;;4994828;28;20226;-69
2021/01/30 12:17:05;;;;;;;0.30;0.30;;;10.60;99.90;;;;;;4976130;28;20187;-69
2021/01/30 12:19:35;;;;;;;1.80;1.07;;;10.60;99.90;;;;;;4994477;28;20606;-69
2021/01/30 12:22:01;;;;;;;0.30;0.30;;;10.60;99.90;;;;;;4993988;28;20425;-69
2021/01/30 12:24:26;;;;;;;0.30;0.30;;;10.50;99.90;;;;;;4994463;28;20258;-70
2021/01/30 12:26:52;;;;;;;0.30;0.30;;;10.50;99.90;;;;;;4993929;28;20199;-69
2021/01/30 12:29:18;;;;;;;0.30;0.30;;;10.50;99.90;;;;;;4994103;28;20167;-70
2021/01/30 12:31:43;;;;;;;0.30;0.20;;;10.50;99.90;;;;;;4994192;28;20298;-70
2021/01/30 12:34:09;;;;;;;0.30;0.30;;;10.50;99.90;;;;;;4994323;28;20174;-68
2021/01/30 12:36:35;;;;;;;0.47;0.47;;;10.40;99.90;;;;;;4993472;28;20203;-69
2021/01/30 12:39:00;;;;;;;0.60;0.60;;;10.30;99.90;;;;;;4994242;28;20183;-68
2021/01/30 12:41:26;;;;;;;0.60;0.47;;;10.20;99.90;;;;;;4976798;28;20197;-69
2021/01/30 12:43:52;;;;;;;0.30;0.30;;;10.10;99.90;;;;;;4993989;28;20186;-69
2021/01/30 12:46:18;;;;;;;0.30;0.30;;;9.90;99.90;;;;;;4993670;28;20620;-68
2021/01/30 12:48:43;;;;;;;0.40;0.40;;;9.80;99.90;;;;;;4976739;28;20238;-67
2021/01/30 12:51:09;;;;;;;0.30;0.30;;;9.70;99.90;;;;;;4992899;28;20457;-70
2021/01/30 12:53:35;;;;;;;0.30;0.20;;;9.50;99.90;;;;;;4994324;28;20171;-69
2021/01/30 12:56:00;;;;;;;0.43;0.43;;;9.40;99.90;;;;;;4993930;28;20191;-69
2021/01/30 12:58:28;;;;;;;0.90;0.90;;;9.30;99.90;;;;;;4994413;28;20170;-68
2021/01/30 13:00:55;;;;;;;0.30;0.30;;;9.20;99.90;;;;;;4994793;28;20178;-68
2021/01/30 13:03:23;;;;;;;0.38;0.38;;;9.10;99.90;;;;;;4994728;28;20622;-67
2021/01/30 13:05:50;;;;;;;0.30;0.20;;;9.00;99.90;;;;;;4994105;28;20215;-69
2021/01/30 13:08:17;;;;;;;0.30;0.30;;;9.00;99.90;;;;;;4993521;28;20534;-68
2021/01/30 13:10:42;;;;;;;0.70;0.70;;;9.00;99.90;;;;;;4993793;28;20198;-68
2021/01/30 13:13:08;;;;;;;0.30;0.30;;;8.90;99.90;;;;;;4993982;28;20178;-68
2021/01/30 13:15:34;;;;;;;0.30;0.30;;;8.90;99.90;;;;;;4993686;28;20168;-69
2021/01/30 13:18:00;;;;;;;0.30;0.30;;;8.80;99.90;;;;;;4993650;28;20178;-69
2021/01/30 13:20:27;;;;;;;0.30;0.30;;;8.70;99.90;;;;;;4994067;28;20210;-69
2021/01/30 13:22:54;;;;;;;0.40;0.40;;;8.70;99.90;;;;;;4993390;28;20531;-68
2021/01/30 13:25:20;;;;;;;0.30;0.30;;;8.70;99.90;;;;;;4993109;28;20573;-68